Aérodrome :
LOGIN :

S'inscrire | Disclaimer

   EN    FR    IT 

 










Légende :    VFR   VFR Marginal   IFR   IFR Intensif   IFR Très Intensif
Visi : 
Plafond : 
>= 8 km
>= 3000ft
5 à 8 km
1000 à 3000 ft
1500m à 5 km
500 à 1000 ft
800 à 1500m
200 à 500 ft
< 800m
< 200 ft
Symboles :   Orages  Brouillard  Fortes neiges  Fortes précipitations  Vent > 20 kt
SIGMETs :   Divers  Orages  Givrage  Turbulence  Onde Orograph.  Cendres Volcan.







- Altitude de l'aérodrome : 1674 ft
- Code IATA : BRN


LSZB - Bern Belp

DERNIER METAR :
  • 222350Z AUTO VRB01KT 9999 FEW060 BKN150 07/04 Q1022 RERA

METARs EXPIRÉS :
  • 222320Z AUTO 26007KT 210V280 5000 RA BKN031 07/04 Q1023
  • 222250Z AUTO 27007KT 240V310 9000 DZ SCT033 SCT038 07/04 Q1022
  • 222220Z AUTO VRB04KT 9999 FEW050 SCT140 07/04 Q1022 REDZ
  • 222150Z AUTO 25006KT 220V300 9999 FEW041 SCT048 BKN060 07/03 Q1022
  • 222120Z AUTO 25006KT 9999 SCT050 BKN070 07/04 Q1022

Prévision TAF périmée.
ATIS : +41 22 417 40 76
Pas de NOTAMs connus pour ce terrain.
1 SIGMET publié pour la FIR Switzerland (LSAS) :
 
Turbulence forte
LSAS SIGMET 2 VALID 222348/230300 LSZH
LSAS SWITZERLAND UIR SEV TURB FCST W OF LINE N4544 E00910 - N4749 E00819 FL220/330 MOV E 10KT NC=



MET'MAP, la Météo Aéronautique d'un coup d'oeil ! - Copyright ORBIFLY Décembre 2007 - Disclaimer

ORBIFLY MET'MAP TEAM :

Programmation & Développement : Alexandra Zaïnal
Conception & Développement : Baudouin d'Aumeries
Co-Programmation & Développement : Marc-Olivier Méhu
Soutien technique & logistique : Manuel Goepfert

Contact : metmap@orbifly.com




SOURCES & CREDITS :

   NOAA